createdAt,value
2022-12-19T00:02:25.812Z,-1.31
2022-12-19T00:04:58.877Z,-1.36
2022-12-19T00:07:31.205Z,-1.31
2022-12-19T00:10:04.120Z,-1.37
2022-12-19T00:12:36.521Z,-1.29
2022-12-19T00:15:09.559Z,-1.29
2022-12-19T00:17:41.892Z,-1.27
2022-12-19T00:20:18.488Z,-1.32
2022-12-19T00:22:51.140Z,-1.36
2022-12-19T00:25:23.451Z,-1.38
2022-12-19T00:27:56.075Z,-1.32
2022-12-19T00:30:28.401Z,-1.33
2022-12-19T00:33:01.745Z,-1.42
2022-12-19T00:35:34.753Z,-1.52
2022-12-19T00:38:08.018Z,-1.56
2022-12-19T00:40:40.551Z,-1.59
2022-12-19T00:43:12.860Z,-1.70
2022-12-19T00:45:45.873Z,-1.64
2022-12-19T00:48:18.249Z,-1.53
2022-12-19T00:50:59.031Z,-1.46
2022-12-19T00:53:31.385Z,-1.32
2022-12-19T00:56:05.277Z,-1.43
2022-12-19T00:58:43.432Z,-1.47
2022-12-19T01:01:20.930Z,-1.51
2022-12-19T01:04:26.468Z,-1.43
2022-12-19T01:06:49.061Z,-1.40
2022-12-19T01:09:23.002Z,-1.49
2022-12-19T01:12:13.489Z,-1.44
2022-12-19T01:14:45.814Z,-1.40
2022-12-19T01:17:18.120Z,-1.32
2022-12-19T01:19:50.477Z,-1.38
2022-12-19T01:22:23.519Z,-1.30
2022-12-19T01:24:55.893Z,-1.26
2022-12-19T01:27:28.204Z,-1.24
2022-12-19T01:30:00.943Z,-1.23
2022-12-19T01:32:34.664Z,-1.18
2022-12-19T01:35:09.884Z,-1.23
2022-12-19T01:37:56.855Z,-1.29
2022-12-19T01:40:40.049Z,-1.27
2022-12-19T01:43:13.721Z,-1.30
2022-12-19T01:45:49.632Z,-1.28
2022-12-19T01:48:30.415Z,-1.30
2022-12-19T01:51:06.068Z,-1.32
2022-12-19T01:53:48.998Z,-1.31
2022-12-19T01:56:26.056Z,-1.39
2022-12-19T01:59:06.103Z,-1.41
2022-12-19T02:01:51.011Z,-1.44
2022-12-19T02:04:32.016Z,-1.32
2022-12-19T02:07:11.627Z,-1.37
2022-12-19T02:09:56.820Z,-1.38
2022-12-19T02:12:37.835Z,-1.35
2022-12-19T02:15:14.207Z,-1.54
2022-12-19T02:18:01.297Z,-1.45
2022-12-19T02:20:59.487Z,-1.60
2022-12-19T02:24:12.895Z,-1.74
2022-12-19T02:27:00.019Z,-1.89
2022-12-19T02:30:08.323Z,-1.79
2022-12-19T02:33:00.021Z,-1.95
2022-12-19T02:35:41.032Z,-1.94
2022-12-19T02:38:21.126Z,-2.04
2022-12-19T02:41:00.274Z,-1.87
2022-12-19T02:43:39.596Z,-1.90
2022-12-19T02:46:15.055Z,-1.82
2022-12-19T02:48:49.812Z,-1.72
2022-12-19T02:51:22.762Z,-1.81
2022-12-19T02:53:55.152Z,-1.89
2022-12-19T02:56:39.887Z,-1.96
2022-12-19T02:59:36.126Z,-1.89
2022-12-19T03:02:22.668Z,-1.98
2022-12-19T03:05:07.842Z,-2.00
2022-12-19T03:07:47.759Z,-2.12
2022-12-19T03:10:30.629Z,-2.13
2022-12-19T03:13:09.407Z,-2.21
2022-12-19T03:15:44.976Z,-2.21
2022-12-19T03:18:17.750Z,-2.10
2022-12-19T03:20:56.595Z,-2.06
2022-12-19T03:23:29.639Z,-2.04
2022-12-19T03:26:06.284Z,-2.02
2022-12-19T03:28:42.466Z,-2.23
2022-12-19T03:31:17.380Z,-2.24
2022-12-19T03:33:55.800Z,-2.13
2022-12-19T03:36:32.760Z,-2.18
2022-12-19T03:39:07.683Z,-2.04
2022-12-19T03:42:02.042Z,-2.04
2022-12-19T03:44:37.695Z,-2.09
2022-12-19T03:47:14.940Z,-2.05
2022-12-19T03:49:48.218Z,-1.97
2022-12-19T03:52:28.278Z,-1.97
2022-12-19T03:55:07.891Z,-1.97
2022-12-19T03:57:47.692Z,-1.91
2022-12-19T04:00:24.174Z,-1.93
2022-12-19T04:02:59.083Z,-2.04
2022-12-19T04:05:32.503Z,-2.10
2022-12-19T04:08:08.087Z,-2.25
2022-12-19T04:10:47.092Z,-2.17
2022-12-19T04:13:25.411Z,-2.34
2022-12-19T04:16:03.876Z,-2.46
2022-12-19T04:18:37.789Z,-2.35
2022-12-19T04:21:17.148Z,-2.32
2022-12-19T04:24:01.951Z,-2.33
2022-12-19T04:26:36.211Z,-2.28
2022-12-19T04:29:12.996Z,-2.32
2022-12-19T04:31:45.844Z,-2.39
2022-12-19T04:34:20.645Z,-2.33
2022-12-19T04:36:53.517Z,-2.39
2022-12-19T04:39:27.852Z,-2.31
2022-12-19T04:42:00.267Z,-2.28
2022-12-19T04:44:32.661Z,-2.30
2022-12-19T04:47:04.949Z,-2.24
2022-12-19T04:49:37.328Z,-2.44
2022-12-19T04:52:09.632Z,-2.35
2022-12-19T04:54:42.636Z,-2.32
2022-12-19T04:57:14.991Z,-2.27
2022-12-19T04:59:47.337Z,-2.35
2022-12-19T05:02:20.233Z,-2.36
2022-12-19T05:04:52.703Z,-2.32
2022-12-19T05:07:25.014Z,-2.27
2022-12-19T05:09:57.962Z,-2.36
2022-12-19T05:12:30.365Z,-2.60
2022-12-19T05:15:02.940Z,-2.49
2022-12-19T05:17:35.517Z,-2.50
2022-12-19T05:20:09.319Z,-2.54
2022-12-19T05:22:41.680Z,-2.63
2022-12-19T05:25:15.160Z,-2.60
2022-12-19T05:27:47.452Z,-2.68
2022-12-19T05:30:22.586Z,-2.73
2022-12-19T05:32:54.984Z,-2.63
2022-12-19T05:35:27.658Z,-2.69
2022-12-19T05:38:00.159Z,-2.59
2022-12-19T05:40:33.306Z,-2.60
2022-12-19T05:43:05.935Z,-2.62
2022-12-19T05:45:38.917Z,-2.60
2022-12-19T05:48:11.237Z,-2.59
2022-12-19T05:50:47.375Z,-2.57
2022-12-19T05:53:23.334Z,-2.58
2022-12-19T05:56:08.625Z,-2.62
2022-12-19T05:58:41.976Z,-2.66
2022-12-19T06:01:17.921Z,-2.59
2022-12-19T06:03:50.790Z,-2.49
2022-12-19T06:06:25.855Z,-2.48
2022-12-19T06:08:59.354Z,-2.45
2022-12-19T06:11:32.377Z,-2.58
2022-12-19T06:14:04.704Z,-2.38
2022-12-19T06:16:37.300Z,-2.35
2022-12-19T06:19:09.633Z,-2.30
2022-12-19T06:21:47.972Z,-2.27
2022-12-19T06:24:20.875Z,-2.36
2022-12-19T06:26:54.558Z,-2.38
2022-12-19T06:29:26.836Z,-2.34
2022-12-19T06:31:59.265Z,-2.33
2022-12-19T06:35:02.761Z,-2.31
2022-12-19T06:37:24.316Z,-2.43
2022-12-19T06:39:56.697Z,-2.43
2022-12-19T06:42:29.432Z,-2.35
2022-12-19T06:45:01.737Z,-2.33
2022-12-19T06:47:34.047Z,-2.37
2022-12-19T06:50:06.802Z,-2.38
2022-12-19T06:52:39.081Z,-2.39
2022-12-19T06:55:11.561Z,-2.33
2022-12-19T06:57:45.783Z,-2.47
2022-12-19T07:00:18.212Z,-2.49
2022-12-19T07:02:51.452Z,-2.35
2022-12-19T07:05:24.405Z,-2.36
2022-12-19T07:07:56.777Z,-2.38
2022-12-19T07:10:29.475Z,-2.36
2022-12-19T07:13:03.810Z,-2.34
2022-12-19T07:15:37.161Z,-2.33
2022-12-19T07:18:10.410Z,-2.31
2022-12-19T07:20:45.197Z,-2.23
2022-12-19T07:23:20.606Z,-2.23
2022-12-19T07:25:53.037Z,-2.18
2022-12-19T07:28:26.258Z,-2.14
2022-12-19T07:30:58.617Z,-2.36
2022-12-19T07:33:31.087Z,-2.31
2022-12-19T07:36:03.765Z,-2.20
2022-12-19T07:38:36.427Z,-2.21
2022-12-19T07:41:08.767Z,-2.26
2022-12-19T07:43:41.746Z,-2.10
2022-12-19T07:46:14.366Z,-2.06
2022-12-19T07:48:46.755Z,-1.90
2022-12-19T07:51:19.096Z,-1.82
2022-12-19T07:53:51.428Z,-1.72
2022-12-19T07:56:23.787Z,-1.70
2022-12-19T07:58:56.893Z,-1.67
2022-12-19T08:01:29.744Z,-1.72
2022-12-19T08:04:02.441Z,-1.71
2022-12-19T08:06:40.606Z,-1.69
2022-12-19T08:09:13.595Z,-1.81
2022-12-19T08:11:45.986Z,-1.67
2022-12-19T08:14:19.358Z,-1.69
2022-12-19T08:17:19.166Z,-1.78
2022-12-19T08:19:44.057Z,-1.97
2022-12-19T08:22:16.394Z,-1.76
2022-12-19T08:24:48.747Z,-1.76
2022-12-19T08:27:21.101Z,-1.66
2022-12-19T08:29:54.097Z,-1.73
2022-12-19T08:32:29.599Z,-1.58
2022-12-19T08:35:01.944Z,-1.56
2022-12-19T08:37:34.270Z,-1.66
2022-12-19T08:40:08.299Z,-1.53
2022-12-19T08:42:40.974Z,-1.53
2022-12-19T08:45:14.155Z,-1.45
2022-12-19T08:47:46.464Z,-1.44
2022-12-19T08:50:18.901Z,-1.32
2022-12-19T08:52:51.250Z,-1.38
2022-12-19T08:55:23.621Z,-1.39
2022-12-19T08:57:55.968Z,-1.38
2022-12-19T09:00:28.975Z,-1.39
2022-12-19T09:03:01.514Z,-1.28
2022-12-19T09:06:03.385Z,-1.24
2022-12-19T09:08:28.124Z,-1.24
2022-12-19T09:11:01.717Z,-1.24
2022-12-19T09:13:35.182Z,-1.28
2022-12-19T09:16:11.513Z,-1.16
2022-12-19T09:18:48.618Z,-1.19
2022-12-19T09:21:23.181Z,-1.24
2022-12-19T09:24:03.494Z,-1.27
2022-12-19T09:26:41.381Z,-1.22
2022-12-19T09:29:20.581Z,-1.11
2022-12-19T09:31:56.562Z,-1.15
2022-12-19T09:34:36.987Z,-1.05
2022-12-19T09:37:17.011Z,-1.00
2022-12-19T09:39:50.030Z,-1.03
2022-12-19T09:42:44.218Z,-0.89
2022-12-19T09:45:31.431Z,-0.99
2022-12-19T09:48:12.383Z,-0.98
2022-12-19T09:51:10.459Z,-1.06
2022-12-19T09:53:58.203Z,-0.99
2022-12-19T09:56:45.281Z,-0.97
2022-12-19T09:59:28.181Z,-0.76
2022-12-19T10:02:25.909Z,-0.75
2022-12-19T10:05:16.833Z,-0.71
2022-12-19T10:08:09.191Z,-0.63
2022-12-19T10:12:36.291Z,-0.48
2022-12-19T10:14:02.685Z,-0.42
2022-12-19T10:16:56.337Z,-0.35
2022-12-19T10:19:45.517Z,-0.27
2022-12-19T10:22:30.783Z,-0.25
2022-12-19T10:25:17.478Z,-0.35
2022-12-19T10:27:59.227Z,-0.28
2022-12-19T10:30:39.272Z,-0.33
2022-12-19T10:33:21.894Z,-0.26
2022-12-19T10:36:02.074Z,-0.03
2022-12-19T10:38:49.096Z,0.01
2022-12-19T10:41:26.439Z,0.12
2022-12-19T10:44:02.099Z,0.05
2022-12-19T10:46:39.958Z,0.01
2022-12-19T10:49:14.293Z,0.06
2022-12-19T10:51:53.677Z,0.21
2022-12-19T10:54:38.677Z,0.30
2022-12-19T10:57:23.840Z,0.31
2022-12-19T10:59:58.368Z,0.40
2022-12-19T11:02:41.728Z,0.51
2022-12-19T11:05:23.831Z,0.58
2022-12-19T11:08:01.717Z,0.64
2022-12-19T11:13:25.536Z,0.45
2022-12-19T11:18:08.686Z,0.49
2022-12-19T11:21:37.652Z,0.63
2022-12-19T11:29:30.477Z,0.71
2022-12-19T11:29:35.297Z,0.40
2022-12-19T11:29:38.942Z,0.46
2022-12-19T11:30:06.373Z,0.40
2022-12-19T11:34:15.949Z,0.48
2022-12-19T11:36:51.929Z,0.53
2022-12-19T11:39:32.981Z,0.39
2022-12-19T11:42:13.430Z,0.26
2022-12-19T11:44:52.944Z,0.21
2022-12-19T11:47:33.528Z,0.15
2022-12-19T11:50:14.694Z,0.18
2022-12-19T11:53:16.552Z,0.15
2022-12-19T11:55:50.451Z,0.10
2022-12-19T11:58:26.162Z,-0.02
2022-12-19T12:01:09.629Z,0.07
2022-12-19T12:04:03.440Z,-0.07
2022-12-19T12:06:45.523Z,-0.02
2022-12-19T12:13:11.076Z,0.02
2022-12-19T12:19:24.567Z,0.04
2022-12-19T12:24:48.025Z,-0.02
2022-12-19T12:31:01.973Z,0.07
2022-12-19T12:31:13.348Z,0.37
2022-12-19T12:31:31.948Z,0.27
2022-12-19T12:31:45.126Z,0.35
2022-12-19T12:35:16.490Z,0.27
2022-12-19T12:35:52.121Z,0.24
2022-12-19T12:40:04.293Z,0.30
2022-12-19T12:42:50.322Z,0.23
2022-12-19T12:45:26.905Z,0.22
2022-12-19T12:47:59.210Z,0.29
2022-12-19T12:50:33.772Z,0.16
2022-12-19T12:53:09.953Z,0.08
2022-12-19T12:55:43.758Z,0.12
2022-12-19T12:59:02.497Z,0.17
2022-12-19T13:01:38.047Z,0.19
2022-12-19T13:04:25.183Z,0.32
2022-12-19T13:07:15.309Z,0.34
2022-12-19T13:09:54.683Z,0.34
2022-12-19T13:12:46.421Z,0.22
2022-12-19T13:15:42.344Z,0.44
2022-12-19T13:18:34.005Z,0.31
2022-12-19T13:21:09.302Z,0.31
2022-12-19T13:23:47.627Z,0.27
2022-12-19T13:26:44.986Z,0.35
2022-12-19T13:29:31.113Z,0.24
2022-12-19T13:32:24.060Z,0.22
2022-12-19T13:35:04.805Z,0.28
2022-12-19T13:39:50.929Z,0.33
2022-12-19T13:40:55.942Z,0.47
2022-12-19T13:43:45.491Z,0.42
2022-12-19T13:46:26.717Z,0.53
2022-12-19T13:49:03.740Z,0.50
2022-12-19T13:51:47.711Z,0.49
2022-12-19T13:54:24.618Z,0.23
2022-12-19T13:56:57.676Z,0.37
2022-12-19T13:59:37.774Z,0.38
2022-12-19T14:02:17.663Z,0.39
2022-12-19T14:04:50.229Z,0.33
2022-12-19T14:07:36.690Z,0.38
2022-12-19T14:11:41.072Z,0.27
2022-12-19T14:13:53.238Z,0.19
2022-12-19T14:16:43.819Z,0.17
2022-12-19T14:19:19.583Z,0.25
2022-12-19T14:22:04.748Z,0.24
2022-12-19T14:24:54.109Z,0.31
2022-12-19T14:28:23.443Z,0.31
2022-12-19T14:30:33.021Z,0.25
2022-12-19T14:33:43.766Z,0.39
2022-12-19T14:36:07.131Z,0.27
2022-12-19T14:39:25.330Z,0.37
2022-12-19T14:42:01.945Z,0.23
2022-12-19T14:54:02.818Z,0.25
2022-12-19T14:54:04.129Z,0.26
2022-12-19T14:54:06.891Z,0.23
2022-12-19T14:54:23.813Z,0.11
2022-12-19T14:59:27.277Z,-0.06
2022-12-19T15:02:04.242Z,0.04
2022-12-19T15:04:47.789Z,0.20
2022-12-19T15:07:25.419Z,0.18
2022-12-19T15:11:04.091Z,0.13
2022-12-19T15:14:53.991Z,-0.02
2022-12-19T15:16:24.049Z,0.07
2022-12-19T15:18:58.148Z,0.10
2022-12-19T15:21:31.341Z,-0.02
2022-12-19T15:24:03.872Z,-0.04
2022-12-19T15:26:46.992Z,0.15
2022-12-19T15:29:22.032Z,0.15
2022-12-19T15:31:54.826Z,0.19
2022-12-19T15:34:35.426Z,0.18
2022-12-19T15:37:11.408Z,0.33
2022-12-19T15:39:44.781Z,0.35
2022-12-19T15:42:21.288Z,0.24
2022-12-19T15:44:55.701Z,0.43
2022-12-19T15:47:32.078Z,0.42
2022-12-19T15:50:18.460Z,0.46
2022-12-19T15:52:54.091Z,0.40
2022-12-19T15:55:29.086Z,0.28
2022-12-19T15:58:04.987Z,0.26
2022-12-19T16:00:38.669Z,0.34
2022-12-19T16:03:23.829Z,0.33
2022-12-19T16:05:56.838Z,0.27
2022-12-19T16:08:30.899Z,0.19
2022-12-19T16:11:03.216Z,0.15
2022-12-19T16:13:35.599Z,0.08
2022-12-19T16:16:15.456Z,0.16
2022-12-19T16:18:48.315Z,0.12
2022-12-19T16:21:31.278Z,0.17
2022-12-19T16:24:07.453Z,0.29
2022-12-19T16:26:40.125Z,0.17
2022-12-19T16:29:18.907Z,0.05
2022-12-19T16:31:51.433Z,0.22
2022-12-19T16:34:24.453Z,0.19
2022-12-19T16:36:56.783Z,0.16
2022-12-19T16:39:29.749Z,0.09
2022-12-19T16:42:04.032Z,-0.08
2022-12-19T16:44:36.506Z,-0.08
2022-12-19T16:47:12.353Z,-0.09
2022-12-19T16:49:44.977Z,-0.19
2022-12-19T16:52:17.403Z,-0.10
2022-12-19T16:54:50.723Z,-0.23
2022-12-19T16:57:23.377Z,-0.38
2022-12-19T16:59:55.735Z,-0.34
2022-12-19T17:02:46.890Z,-0.38
2022-12-19T17:05:23.063Z,-0.38
2022-12-19T17:07:56.192Z,-0.38
2022-12-19T17:10:31.651Z,-0.43
2022-12-19T17:13:04.145Z,-0.43
2022-12-19T17:15:38.146Z,-0.45
2022-12-19T17:18:14.708Z,-0.55
2022-12-19T17:20:47.170Z,-0.57
2022-12-19T17:23:21.242Z,-0.62
2022-12-19T17:25:54.473Z,-0.60
2022-12-19T17:28:27.684Z,-0.64
2022-12-19T17:31:04.151Z,-0.71
2022-12-19T17:33:39.193Z,-0.58
2022-12-19T17:36:15.407Z,-0.62
2022-12-19T17:38:49.590Z,-0.62
2022-12-19T17:41:22.514Z,-0.66
2022-12-19T17:43:54.901Z,-0.77
2022-12-19T17:46:28.052Z,-0.71
2022-12-19T17:49:00.484Z,-0.74
2022-12-19T17:51:32.830Z,-0.65
2022-12-19T17:54:10.435Z,-0.72
2022-12-19T17:56:44.026Z,-0.72
2022-12-19T17:59:16.635Z,-0.74
2022-12-19T18:01:49.093Z,-0.74
2022-12-19T18:04:21.717Z,-0.72
2022-12-19T18:06:54.133Z,-0.78
2022-12-19T18:09:26.504Z,-0.79
2022-12-19T18:11:59.583Z,-0.69
2022-12-19T18:14:31.981Z,-0.72
2022-12-19T18:17:04.721Z,-0.77
2022-12-19T18:19:37.037Z,-0.83
2022-12-19T18:22:12.772Z,-0.88
2022-12-19T18:24:45.087Z,-0.73
2022-12-19T18:27:18.139Z,-0.74
2022-12-19T18:29:50.512Z,-0.85
2022-12-19T18:32:23.366Z,-0.91
2022-12-19T18:34:56.122Z,-0.93
2022-12-19T18:37:28.560Z,-0.89
2022-12-19T18:40:00.886Z,-0.85
2022-12-19T18:42:33.922Z,-0.90
2022-12-19T18:45:08.312Z,-0.83
2022-12-19T18:47:40.884Z,-0.92
2022-12-19T18:50:16.200Z,-0.87
2022-12-19T18:52:49.433Z,-0.81
2022-12-19T18:55:23.394Z,-0.83
2022-12-19T18:57:56.419Z,-0.86
2022-12-19T19:00:28.850Z,-0.91
2022-12-19T19:03:03.762Z,-0.89
2022-12-19T19:05:38.113Z,-0.83
2022-12-19T19:08:17.092Z,-0.84
2022-12-19T19:10:54.407Z,-0.81
2022-12-19T19:13:27.822Z,-0.80
2022-12-19T19:16:02.694Z,-0.82
2022-12-19T19:18:37.697Z,-0.87
2022-12-19T19:21:12.991Z,-1.12
2022-12-19T19:23:48.702Z,-1.01
2022-12-19T19:26:21.453Z,-0.87
2022-12-19T19:28:54.489Z,-0.73
2022-12-19T19:31:29.485Z,-0.65
2022-12-19T19:34:08.285Z,-0.76
2022-12-19T19:36:44.440Z,-0.92
2022-12-19T19:39:19.077Z,-0.90
2022-12-19T19:41:51.579Z,-0.81
2022-12-19T19:44:24.681Z,-0.70
2022-12-19T19:46:57.155Z,-0.69
2022-12-19T19:49:29.521Z,-0.74
2022-12-19T19:52:03.188Z,-0.58
2022-12-19T19:54:35.695Z,-0.52
2022-12-19T19:57:08.018Z,-0.50
2022-12-19T19:59:41.064Z,-0.50
2022-12-19T20:02:13.668Z,-0.52
2022-12-19T20:04:49.344Z,-0.60
2022-12-19T20:07:21.666Z,-0.72
2022-12-19T20:09:53.974Z,-0.79
2022-12-19T20:12:26.316Z,-0.82
2022-12-19T20:14:59.379Z,-0.84
2022-12-19T20:17:31.723Z,-0.83
2022-12-19T20:20:05.127Z,-0.84
2022-12-19T20:22:37.528Z,-0.79
2022-12-19T20:25:10.008Z,-0.75
2022-12-19T20:27:42.411Z,-0.65
2022-12-19T20:30:15.761Z,-0.63
2022-12-19T20:32:48.110Z,-0.67
2022-12-19T20:35:20.636Z,-0.76
2022-12-19T20:37:52.997Z,-0.69
2022-12-19T20:40:25.507Z,-0.57
2022-12-19T20:42:57.843Z,-0.59
2022-12-19T20:45:30.799Z,-0.61
2022-12-19T20:48:03.296Z,-0.69
2022-12-19T20:50:41.258Z,-0.77
2022-12-19T20:53:15.127Z,-0.72
2022-12-19T20:55:57.401Z,-0.75
2022-12-19T20:58:32.592Z,-0.72
2022-12-19T21:01:07.370Z,-0.74
2022-12-19T21:03:40.540Z,-0.84
2022-12-19T21:06:14.715Z,-0.79
2022-12-19T21:08:47.696Z,-0.75
2022-12-19T21:11:20.604Z,-0.72
2022-12-19T21:13:53.298Z,-0.64
2022-12-19T21:16:26.390Z,-0.70
2022-12-19T21:18:58.793Z,-0.79
2022-12-19T21:21:31.106Z,-0.82
2022-12-19T21:24:03.938Z,-0.84
2022-12-19T21:26:36.278Z,-0.76
2022-12-19T21:29:08.654Z,-0.77
2022-12-19T21:31:41.691Z,-0.73
2022-12-19T21:34:14.041Z,-0.72
2022-12-19T21:36:46.446Z,-0.72
2022-12-19T21:39:24.553Z,-0.72
2022-12-19T21:41:56.845Z,-0.76
2022-12-19T21:44:29.316Z,-0.79
2022-12-19T21:47:02.270Z,-0.82
2022-12-19T21:49:34.649Z,-0.82
2022-12-19T21:52:06.938Z,-0.87
2022-12-19T21:54:39.517Z,-0.95
2022-12-19T21:57:11.839Z,-0.96
2022-12-19T21:59:44.109Z,-1.06
2022-12-19T22:02:17.224Z,-1.16
2022-12-19T22:04:49.759Z,-1.27
2022-12-19T22:07:22.089Z,-1.27
2022-12-19T22:09:54.419Z,-1.29
2022-12-19T22:12:26.742Z,-1.26
2022-12-19T22:14:59.177Z,-1.31
2022-12-19T22:17:32.115Z,-1.33
2022-12-19T22:20:05.824Z,-1.37
2022-12-19T22:22:38.191Z,-1.39
2022-12-19T22:25:10.476Z,-1.55
2022-12-19T22:27:42.797Z,-1.63
2022-12-19T22:30:15.321Z,-1.63
2022-12-19T22:32:48.292Z,-1.66
2022-12-19T22:35:20.588Z,-1.64
2022-12-19T22:37:52.989Z,-1.57
2022-12-19T22:40:25.308Z,-1.65
2022-12-19T22:42:57.677Z,-1.58
2022-12-19T22:45:30.240Z,-1.52
2022-12-19T22:48:03.423Z,-1.55
2022-12-19T22:50:36.063Z,-1.59
2022-12-19T22:53:12.753Z,-1.55
2022-12-19T22:55:45.344Z,-1.64
2022-12-19T22:58:17.687Z,-1.62
2022-12-19T23:00:50.064Z,-1.71
2022-12-19T23:03:23.311Z,-1.81
2022-12-19T23:05:55.771Z,-1.89
2022-12-19T23:08:28.133Z,-1.94
2022-12-19T23:11:00.443Z,-1.91
2022-12-19T23:13:33.088Z,-1.86
2022-12-19T23:16:05.695Z,-1.90
2022-12-19T23:18:39.175Z,-1.89
2022-12-19T23:21:14.742Z,-2.00
2022-12-19T23:23:50.766Z,-1.91
2022-12-19T23:26:24.980Z,-2.08
2022-12-19T23:28:59.507Z,-1.94
2022-12-19T23:31:32.034Z,-2.04
2022-12-19T23:34:05.086Z,-2.05
2022-12-19T23:37:09.658Z,-2.12
2022-12-19T23:39:30.597Z,-2.19
2022-12-19T23:42:03.074Z,-2.27
2022-12-19T23:44:35.461Z,-2.26
2022-12-19T23:47:07.763Z,-2.30
2022-12-19T23:49:40.759Z,-2.21
2022-12-19T23:52:19.346Z,-2.20
2022-12-19T23:54:51.763Z,-2.24
2022-12-19T23:57:24.078Z,-2.20
2022-12-19T23:59:56.429Z,-2.12
